Hauptseite
METAR-TAF:

METAR-TAF

Flughäfen :

Kairo, Ägypten

Flughafen Kairo

Breite: 30-08N, Länge: 031-24E, Höhe: 64 m

Beobachtung

Neuester Wetterbericht von vor 17 Minuten, um 15:30 UTC
Wind 12 kt aus Nord/Nordost
Temperatur 36°C
Luftfeuchtigkeit 29%
Luftdruck 1008 hPa
Sichtweite 10 km oder mehr
keine Wolken unter 1500 m und keine Kumulonimbus oder Gewitterwolken

METAR: HECA 271530Z 02012KT CAVOK 36/15 Q1008 NOSIG

Zeit: 17:47 (15:47 UTC)

Prognose

Neuester Wetterbericht von vor 4 Stunden und 47 Minuten, um 11:00 UTC
Gültige Prognose vom 27 um 12 UTC bis 28 um 18 UTC
Wind 10 kt aus Nord
Sichtweite 10 km oder mehr
keine Wolken unter 1500 m und keine Kumulonimbus oder Gewitterwolken
Zeitweise
vom 28 um 00 UTC bis 28 um 06 UTC
Wind 3 kt aus unterschiedlichen Richtungen
Sichtweite: 4000 m
feuchter Dunst

TAF: HECA 271100Z 2712/2818 35010KT CAVOK TEMPO 2800/2806 VRB03KT 4000 BR NSC

Wetterbeobachtungen und Prognosen von mehr als 4000 Flughäfen (METAR und TAF Bericht).

Die verfügbaren Stationen werden durch gelbe und rote Markierungen auf der Karte dargestellt.

Führen Sie die Maus auf sie, um den Namen der Station zu sehen.

Darauf klicken, um die Beobachtung von Wetterbeobachtungen und Prognosen zu sehen.

Um die Karte zu ändern : klicken Sie auf den grünen Tasten mit einem schwarzen Kreuz Zum Vergrößern, auf den grünen Button mit einem Gedankenstrich zu verkleinern, oder auf die grünen Pfeile für benachbarte Karten.


METAR-TAF: